Flight Track Log - Related Links

Times and Time Zones

All times are in EDT time to prevent confusion due to time zone crossing. See the EJA114 flight status page for this flight to view local times or setup timezone preferences in your user account.

Time Position Orientation Groundspeed Altitude Reporting Facility
EDT Latitude Longitude Course Direction KTS MPH feet Rate Location/Type
Thu 06:15:23 PM 41.9500 -87.9000 217° Southwest 154 177 1,900  Level Chicago TRACON
Thu 06:16:23 PM 41.9167 -87.9333 217° Southwest 172 198 4,800 1,120 Climbing Chicago TRACON
Thu 06:18:09 PM 41.8644 -87.7858 115° Southeast 259 298 5,000 71 Climbing Chicago Center
Thu 06:19:11 PM 41.8731 -87.6847 83° East 271 312 5,000 290 Level Chicago Center
Thu 06:20:13 PM 41.8861 -87.5808 80° East 278 320 5,600 1,403 Climbing Chicago Center
Thu 06:21:15 PM 41.8969 -87.4739 82° East 288 331 7,900 2,419 Climbing Chicago Center
Thu 06:22:17 PM 41.9103 -87.3658 81° East 292 336 10,600 2,468 Climbing Chicago Center
Thu 06:23:19 PM 41.9250 -87.2372 81° East 292 336 13,000 1,920 Climbing Chicago Center
Thu 06:24:22 PM 41.9381 -87.1217 81° East 313 360 14,600 1,392 Climbing Chicago Center
Thu 06:25:24 PM 41.9467 -86.9953 85° East 339 390 15,900 1,403 Climbing Chicago Center
Thu 06:26:26 PM 41.9478 -86.8569 89° East 368 423 17,500 1,500 Climbing Chicago Center
Thu 06:27:28 PM 41.9500 -86.7186 89° East 372 428 19,000 1,500 Climbing Chicago Center
Thu 06:28:30 PM 41.9511 -86.5581 89° East 374 430 20,600 1,306 Climbing Chicago Center
Thu 06:29:32 PM 41.9533 -86.4178 89° East 376 433 21,700 1,113 Climbing Chicago Center
Thu 06:30:34 PM 41.9550 -86.2797 89° East 373 429 22,900 1,113 Climbing Chicago Center
Thu 06:31:36 PM 41.9361 -86.1439 101° East 377 434 24,000 968 Climbing Chicago Center
Thu 06:32:38 PM 41.8958 -86.0142 113° Southeast 376 433 24,900 919 Climbing Chicago Center
Thu 06:33:40 PM 41.8478 -85.8511 112° Southeast 392 451 25,900 871 Climbing Chicago Center
Thu 06:34:42 PM 41.8075 -85.7136 111° Southeast 396 456 26,700 528 Climbing Chicago Center
Thu 06:35:45 PM 41.7600 -85.5775 115° Southeast 402 463 27,000 144 Climbing Chicago Center
Thu 06:36:47 PM 41.6697 -85.4819 142° Southeast 412 474 27,000  Level Chicago Center
Thu 06:37:49 PM 41.5486 -85.4289 162° South 409 471 27,000  Level Chicago Center
Thu 06:38:51 PM 41.4394 -85.3808 162° South 416 479 27,000  Level Chicago Center
Thu 06:39:53 PM 41.3289 -85.3331 162° South 419 482 27,000 -97 Level Chicago Center
Thu 06:40:55 PM 41.2156 -85.2850 162° South 425 489 26,800 -581 Descending Chicago Center
Thu 06:41:57 PM 41.1028 -85.2358 162° South 427 491 25,800 -1,355 Descending Chicago Center
Thu 06:42:59 PM 40.9897 -85.1878 162° South 428 493 24,000 -1,355 Descending Chicago Center
Thu 06:44:01 PM 40.8822 -85.0744 141° Southeast 425 489 23,000 -484 Descending Chicago Center
Thu 06:45:03 PM 40.8625 -84.9200 100° East 432 497 23,000  Level Chicago Center
Thu 06:46:06 PM 40.8494 -84.7617 96° East 435 501 23,000  Level Chicago Center
Thu 06:47:08 PM 40.8044 -84.6194 113° Southeast 426 490 23,000  Level Chicago Center
Thu 06:48:10 PM 40.7617 -84.4800 112° Southeast 416 479 23,000  Level Chicago Center
Thu 06:48:58 PM 40.7217 -84.3539 113° Southeast 401 461 23,000 -545 Level Indianapolis Center
Thu 06:50:00 PM 40.6803 -84.2219 112° Southeast 387 445 22,000 -1,403 Descending Indianapolis Center
Thu 06:51:02 PM 40.6364 -84.0831 113° Southeast 403 464 20,100 -1,790 Descending Indianapolis Center
Thu 06:52:04 PM 40.5928 -83.9436 112° Southeast 409 471 18,300 -1,721 Descending Indianapolis Center
Thu 06:53:04 PM 40.5478 -83.8100 114° Southeast 377 434 16,600 -1,785 Descending Indianapolis Center
Thu 06:54:05 PM 40.5039 -83.6672 112° Southeast 386 444 14,700 -1,745 Descending Indianapolis Center
Thu 06:54:54 PM 40.4733 -83.5728 113° Southeast 378 435 13,400 -1,477 Descending Indianapolis Center
Thu 06:55:10 PM 40.4692 -83.5550 107° East 375 432 13,100 -1,574 Descending Indianapolis Center
Thu 06:55:55 PM 40.4356 -83.4558 114° Southeast 347 399 11,800 -1,770 Descending Indianapolis Center
Thu 06:56:11 PM 40.4236 -83.4175 112° Southeast 353 406 11,300 -800 Descending Indianapolis Center
Thu 06:56:55 PM 40.3892 -83.3433 121° Southeast 353 406 11,000 -581 Descending Indianapolis Center
Thu 06:57:13 PM 40.3683 -83.3111 130° Southeast 355 409 10,700 -984 Descending Indianapolis Center
Thu 06:57:56 PM 40.3206 -83.2475 135° Southeast 330 380 10,000 -774 Descending Indianapolis Center
Thu 06:58:15 PM 40.3042 -83.2219 130° Southeast 333 383 9,900  Descending Indianapolis Center
Thu 06:58:57 PM 40.2556 -83.1578 135° Southeast 334 384 10,000 -97 Climbing Indianapolis Center
Thu 06:59:17 PM 40.2428 -83.1308 122° Southeast 327 376 9,800 -1,667 Descending Indianapolis Center
Thu 06:59:51 PM 40.2131 -83.0761 125° Southeast 288 331 8,500 -2,032 Descending Indianapolis Center
Thu 07:00:19 PM 40.1975 -83.0433 122° Southeast 291 335 7,700 -1,869 Descending Indianapolis Center
Thu 07:00:52 PM 40.1686 -82.9919 126° Southeast 279 321 6,600 -1,645 Descending Indianapolis Center
Thu 07:01:21 PM 40.1528 -82.9581 121° Southeast 284 327 6,000 -493 Descending Indianapolis Center
Thu 07:02:05 PM 40.1208 -82.8936 123° Southeast 274 315 6,000 -97 Level Indianapolis Center
Thu 07:02:23 PM 40.1114 -82.8744 123° Southeast 275 316 5,900 -571 Descending Indianapolis Center
Thu 07:02:47 PM 40.0894 -82.8303 123° Southeast 269 310 5,600 -871 Descending Indianapolis Center
Thu 07:03:25 PM 40.0711 -82.7922 122° Southeast 268 308 5,000 -1,075 Descending Indianapolis Center
Thu 07:03:54 PM 40.0489 -82.7494 124° Southeast 232 267 4,400 -1,161 Descending Indianapolis Center
Thu 07:04:27 PM 40.0281 -82.7358 153° Southeast 248 285 3,800 -982 Descending Indianapolis Center
Thu 07:04:49 PM 40.0008 -82.7467 197° South 181 208 3,500 -1,161 Descending Indianapolis Center
Thu 07:05:29 PM 39.9981 -82.7781 263° West 181 208 2,600 -1,200 Descending Indianapolis Center
Thu 07:05:49 PM 39.9975 -82.7981 268° West 129 148 2,300 -871 Descending Indianapolis Center
Thu 07:06:31 PM 39.9992 -82.8292 274° West 151 174 1,700 -896 Descending Indianapolis Center
Thu 07:06:56 PM 40.0003 -82.8500 274° West 128 147 1,300 -581 Descending Indianapolis Center
Thu 07:07:33 PM 40.0006 -82.8733 271° West 141 162 1,100 -324 Descending Indianapolis Center

Login

Don't have an account? Register now (free) for customized features, flight alerts, and more!